Share

Al Qaysumah, Saudi Arabia

10:49 PM AST on April 24, 2014 (GMT +0300)
Hafr Al-Batin (OEPA) Elev 1175 ft | 28.32 °N, 46.13 °E | Change Station

Current weather conditions updated 49 minutes ago

Clear
Clear
81 °F
Feels Like 81 °F
N
5
Wind Variable Wind from NE
Sunrise 5:21 AM
Sunset 6:26 PM
Moon Waning Crescent

Tomorrow is forecast to be nearly the same temperature as today.

Pressure 29.92 in
Visibility -9999.0 miles
Clouds
Heat Index 81 °F
Dew Point 57 °F
Humidity 45%
Rainfall 0.00 in
Snow Depth Not available.
UV Not available.
Pollen Not available.
Air Quality Not available.
Flu Activity Not available.
METAR OEPA 241900Z 05004KT CAVOK 27/14 Q1013 NOSIG

More Conditions Fewer Conditions

Pressure 29.92 in
Visibility -9999.0 miles
Clouds
Heat Index 81 °F
Dew Point 57 °F
Humidity 45%
Rainfall 0.00 in
Snow Depth Not available.
UV Not available.
Pollen Not available.
Air Quality Not available.
Flu Activity Not available.
METAR OEPA 241900Z 05004KT CAVOK 27/14 Q1013 NOSIG

More Conditions Fewer Conditions

10-Day Weather Forecast

Almanac

Astronomy

Apr. 24, 2014 Rise Set
Actual Time 5:21 AM AST 6:26 PM AST
Civil Twilight 4:57 AM AST 6:50 PM AST
Nautical Twilight 4:28 AM AST 7:19 PM AST
Astronomical Twilight 3:58 AM AST 7:49 PM AST
Moon 1:50 AM AST 1:41 PM AST
Length of Visible Light 13h 53m
Length of Day
13h 04m
Tomorrow will be 1m 31s longer.
Waning Crescent, 23% of the Moon is Illuminated
Today
Waning Crescent
Apr 29
New
May 6
First Quarter
May 14
Full
May 21
Last Quarter

Today's Extremes

Country Highs Country Lows

Community

  • Sunset at Apalachicola Bay, Florida
    Sunset at Apalachicola Bay, Florida
  • Clouds mov'n in
    Clouds mov'n in
  • Stacked
    Stacked
  • clouds approaching Red Sox Nation
    clouds approaching Red Sox Nation
  • Balance
    Balance

WunderPhotos

Upload Photos

1,704,708 photos uploaded!

Nearby

Snow Depth

Not available.

Coastal Water Temperatures

Place Temperature
No Stations Reporting

Earthquake Activity

City Distance Mag. Time & Date
No recent earthquake activity has been reported nearby.
Minimum magnitude displayed is 2.5.

Nearby Weather Stations

There are no personal weather stations in this area.

What do you think?

We're not finished. Please let us know what you like, what you don't like, and what you are still missing.